createdAt,value
2023-04-02T00:00:11.946Z,97453.81
2023-04-02T00:03:01.984Z,97457.31
2023-04-02T00:05:37.183Z,97461.69
2023-04-02T00:08:10.421Z,97459.94
2023-04-02T00:10:51.014Z,97460.88
2023-04-02T00:13:18.110Z,97469.41
2023-04-02T00:15:49.139Z,97473.63
2023-04-02T00:18:21.693Z,97473.41
2023-04-02T00:21:06.372Z,97477.75
2023-04-02T00:23:37.534Z,97473.63
2023-04-02T00:26:20.133Z,97480.38
2023-04-02T00:28:47.454Z,97484.91
2023-04-02T00:31:14.343Z,97485.84
2023-04-02T00:33:43.845Z,97488.38
2023-04-02T00:36:10.874Z,97490.16
2023-04-02T00:38:38.502Z,97484.91
2023-04-02T00:41:07.396Z,97488.47
2023-04-02T00:43:38.501Z,97489.06
2023-04-02T00:46:14.269Z,97492.53
2023-04-02T00:48:49.456Z,97489.81
2023-04-02T00:51:23.201Z,97494.41
2023-04-02T00:53:54.113Z,97500.66
2023-04-02T00:56:28.604Z,97494.53
2023-04-02T00:58:57.750Z,97495.38
2023-04-02T01:01:28.127Z,97504.13
2023-04-02T01:04:01.465Z,97509.38
2023-04-02T01:06:34.265Z,97509.38
2023-04-02T01:09:38.657Z,97514.09
2023-04-02T01:12:13.715Z,97516.66
2023-04-02T01:14:59.423Z,97520.41
2023-04-02T01:17:39.981Z,97525.75
2023-04-02T01:20:24.206Z,97521.53
2023-04-02T01:22:55.087Z,97527.84
2023-04-02T01:25:39.852Z,97532.38
2023-04-02T01:28:09.610Z,97534.16
2023-04-02T01:30:37.520Z,97532.38
2023-04-02T01:33:07.226Z,97532.88
2023-04-02T01:35:40.040Z,97533.13
2023-04-02T01:38:18.173Z,97535.97
2023-04-02T01:40:57.133Z,97536.72
2023-04-02T01:43:30.131Z,97549.03
2023-04-02T01:45:58.714Z,97548.91
2023-04-02T01:48:30.231Z,97547.31
2023-04-02T01:50:59.771Z,97559.44
2023-04-02T01:53:28.305Z,97546.00
2023-04-02T01:55:59.800Z,97557.22
2023-04-02T01:58:31.790Z,97558.03
2023-04-02T02:01:04.030Z,97559.97
2023-04-02T02:03:31.336Z,97564.41
2023-04-02T02:05:59.464Z,97567.72
2023-04-02T02:08:37.328Z,97565.16
2023-04-02T02:11:05.921Z,97562.91
2023-04-02T02:13:33.629Z,97577.00
2023-04-02T02:16:03.183Z,97576.06
2023-04-02T02:18:30.270Z,97582.63
2023-04-02T02:20:58.778Z,97589.69
2023-04-02T02:23:29.272Z,97589.84
2023-04-02T02:25:56.880Z,97591.75
2023-04-02T02:28:31.577Z,97599.72
2023-04-02T02:31:27.921Z,97596.34
2023-04-02T02:34:03.000Z,97598.31
2023-04-02T02:36:49.205Z,97603.75
2023-04-02T02:39:22.290Z,97608.25
2023-04-02T02:42:24.410Z,97618.09
2023-04-02T02:44:54.151Z,97619.81
2023-04-02T02:47:34.892Z,97615.75
2023-04-02T02:50:07.214Z,97621.22
2023-04-02T02:52:38.997Z,97619.53
2023-04-02T02:55:22.850Z,97623.28
2023-04-02T02:58:07.007Z,97628.53
2023-04-02T03:00:36.044Z,97632.09
2023-04-02T03:03:06.142Z,97636.22
2023-04-02T03:05:33.728Z,97643.91
2023-04-02T03:08:06.434Z,97643.97
2023-04-02T03:10:43.562Z,97645.78
2023-04-02T03:13:39.050Z,97652.25
2023-04-02T03:16:22.979Z,97653.09
2023-04-02T03:18:59.139Z,97653.16
2023-04-02T03:21:28.921Z,97658.78
2023-04-02T03:24:23.763Z,97663.56
2023-04-02T03:27:05.896Z,97672.63
2023-04-02T03:29:41.586Z,97674.50
2023-04-02T03:32:23.229Z,97675.59
2023-04-02T03:34:57.911Z,97678.22
2023-04-02T03:37:32.702Z,97682.97
2023-04-02T03:40:09.787Z,97688.34
2023-04-02T03:43:06.563Z,97686.81
2023-04-02T03:45:41.273Z,97691.94
2023-04-02T03:48:37.268Z,97694.69
2023-04-02T03:51:12.133Z,97699.94
2023-04-02T03:53:39.424Z,97699.00
2023-04-02T03:56:07.751Z,97708.66
2023-04-02T03:58:40.682Z,97696.56
2023-04-02T04:01:34.578Z,97703.59
2023-04-02T04:04:13.673Z,97704.63
2023-04-02T04:06:45.103Z,97708.47
2023-04-02T04:09:30.446Z,97706.63
2023-04-02T04:12:39.408Z,97719.69
2023-04-02T04:15:22.733Z,97723.97
2023-04-02T04:18:05.932Z,97721.34
2023-04-02T04:20:58.862Z,97726.53
2023-04-02T04:23:38.502Z,97727.31
2023-04-02T04:26:19.946Z,97726.28
2023-04-02T04:29:00.279Z,97736.78
2023-04-02T04:31:39.669Z,97742.81
2023-04-02T04:34:16.171Z,97743.63
2023-04-02T04:36:54.582Z,97746.19
2023-04-02T04:39:29.856Z,97749.72
2023-04-02T04:42:00.954Z,97754.84
2023-04-02T04:44:46.914Z,97758.31
2023-04-02T04:47:21.957Z,97761.78
2023-04-02T04:49:59.765Z,97754.66
2023-04-02T04:52:35.556Z,97765.09
2023-04-02T04:55:04.330Z,97763.16
2023-04-02T04:57:40.084Z,97764.00
2023-04-02T05:00:13.929Z,97762.97
2023-04-02T05:02:48.950Z,97762.91
2023-04-02T05:05:24.533Z,97767.13
2023-04-02T05:07:59.847Z,97771.44
2023-04-02T05:10:58.886Z,97773.41
2023-04-02T05:13:34.549Z,97771.44
2023-04-02T05:16:22.788Z,97779.50
2023-04-02T05:19:24.104Z,97777.63
2023-04-02T05:22:21.256Z,97772.13
2023-04-02T05:25:01.298Z,97777.97
2023-04-02T05:27:52.863Z,97786.34
2023-04-02T05:30:25.533Z,97792.88
2023-04-02T05:33:05.047Z,97799.22
2023-04-02T05:35:36.771Z,97796.81
2023-04-02T05:38:06.635Z,97805.03
2023-04-02T05:40:38.421Z,97801.47
2023-04-02T05:43:11.078Z,97802.44
2023-04-02T05:45:41.344Z,97811.59
2023-04-02T05:48:21.490Z,97812.19
2023-04-02T05:50:52.817Z,97813.91
2023-04-02T05:53:33.924Z,97823.66
2023-04-02T05:56:19.537Z,97826.31
2023-04-02T05:58:52.623Z,97816.53
2023-04-02T06:01:33.607Z,97824.31
2023-04-02T06:04:13.083Z,97828.56
2023-04-02T06:06:39.872Z,97827.97
2023-04-02T06:09:24.329Z,97827.78
2023-04-02T06:12:07.080Z,97834.19
2023-04-02T06:14:34.366Z,97829.94
2023-04-02T06:17:01.455Z,97837.91
2023-04-02T06:19:36.360Z,97835.44
2023-04-02T06:22:20.068Z,97833.66
2023-04-02T06:24:55.352Z,97847.44
2023-04-02T06:27:25.815Z,97839.47
2023-04-02T06:29:58.531Z,97846.97
2023-04-02T06:32:28.586Z,97846.34
2023-04-02T06:34:55.985Z,97852.50
2023-04-02T06:37:38.653Z,97858.16
2023-04-02T06:40:20.672Z,97855.63
2023-04-02T06:42:50.228Z,97859.22
2023-04-02T06:45:25.682Z,97861.97
2023-04-02T06:48:14.108Z,97856.97
2023-04-02T06:50:46.320Z,97859.72
2023-04-02T06:53:27.918Z,97863.41
2023-04-02T06:56:07.026Z,97872.22
2023-04-02T06:58:33.947Z,97870.72
2023-04-02T07:01:01.474Z,97881.81
2023-04-02T07:03:31.156Z,97877.88
2023-04-02T07:06:01.064Z,97888.19
2023-04-02T07:08:27.887Z,97883.22
2023-04-02T07:10:56.378Z,97883.28
2023-04-02T07:13:24.263Z,97886.59
2023-04-02T07:15:53.964Z,97887.28
2023-04-02T07:18:27.983Z,97890.28
2023-04-02T07:20:56.187Z,97892.06
2023-04-02T07:23:23.641Z,97895.38
2023-04-02T07:25:53.108Z,97902.34
2023-04-02T07:28:21.964Z,97906.03
2023-04-02T07:30:51.462Z,97910.81
2023-04-02T07:33:25.217Z,97916.09
2023-04-02T07:35:56.235Z,97916.00
2023-04-02T07:38:35.425Z,97923.72
2023-04-02T07:41:16.490Z,97918.00
2023-04-02T07:43:43.775Z,97923.53
2023-04-02T07:46:14.211Z,97924.38
2023-04-02T07:48:41.146Z,97930.50
2023-04-02T07:51:20.483Z,97932.94
2023-04-02T07:53:50.772Z,97934.94
2023-04-02T07:56:19.954Z,97930.13
2023-04-02T07:58:47.393Z,97936.41
2023-04-02T08:01:26.568Z,97938.84
2023-04-02T08:03:55.111Z,97932.38
2023-04-02T08:06:24.012Z,97945.34
2023-04-02T08:08:51.172Z,97939.91
2023-04-02T08:11:18.365Z,97949.28
2023-04-02T08:13:46.066Z,97961.63
2023-04-02T08:16:13.123Z,97959.28
2023-04-02T08:18:40.632Z,97965.06
2023-04-02T08:21:10.148Z,97957.97
2023-04-02T08:23:37.912Z,97964.84
2023-04-02T08:26:06.229Z,97966.28
2023-04-02T08:28:33.599Z,97977.47
2023-04-02T08:31:00.844Z,97970.03
2023-04-02T08:33:28.116Z,97977.94
2023-04-02T08:35:55.124Z,97978.97
2023-04-02T08:38:22.609Z,97969.66
2023-04-02T08:40:52.421Z,97979.19
2023-04-02T08:56:42.121Z,97996.88
2023-04-02T08:59:37.953Z,97993.97
2023-04-02T09:02:35.862Z,97998.22
2023-04-02T09:05:06.971Z,97995.59
2023-04-02T09:07:34.374Z,98013.44
2023-04-02T09:10:01.891Z,98009.31
2023-04-02T09:12:32.369Z,98012.81
2023-04-02T09:15:14.893Z,98013.00
2023-04-02T09:17:53.182Z,98015.16
2023-04-02T09:20:27.720Z,98012.34
2023-04-02T09:22:56.646Z,98023.34
2023-04-02T09:25:32.410Z,98018.44
2023-04-02T09:28:03.251Z,98018.53
2023-04-02T09:30:30.580Z,98021.38
2023-04-02T09:33:07.652Z,98029.88
2023-04-02T09:35:58.283Z,98024.41
2023-04-02T09:38:35.398Z,98013.81
2023-04-02T09:41:04.751Z,98020.38
2023-04-02T09:43:34.539Z,98021.03
2023-04-02T09:46:01.724Z,98020.41
2023-04-02T09:48:39.321Z,98028.81
2023-04-02T09:51:23.741Z,98028.94
2023-04-02T09:53:51.823Z,98028.13
2023-04-02T09:56:18.960Z,98027.59
2023-04-02T09:59:01.548Z,98031.22
2023-04-02T10:01:38.916Z,98028.16
2023-04-02T10:04:27.240Z,98035.59
2023-04-02T10:06:59.194Z,98034.69
2023-04-02T10:09:30.759Z,98045.28
2023-04-02T10:12:00.186Z,98031.28
2023-04-02T10:14:43.196Z,98034.59
2023-04-02T10:17:16.603Z,98042.09
2023-04-02T10:19:54.106Z,98038.28
2023-04-02T10:22:23.066Z,98047.28
2023-04-02T10:24:50.934Z,98055.41
2023-04-02T10:27:18.091Z,98043.97
2023-04-02T10:30:07.050Z,98052.25
2023-04-02T10:32:41.585Z,98056.97
2023-04-02T10:35:08.905Z,98062.50
2023-04-02T10:38:13.694Z,98062.16
2023-04-02T10:40:46.578Z,98068.97
2023-04-02T10:43:38.305Z,98077.13
2023-04-02T10:46:09.121Z,98073.75
2023-04-02T10:49:05.717Z,98080.41
2023-04-02T10:51:48.916Z,98086.56
2023-04-02T10:54:45.611Z,98083.13
2023-04-02T10:57:27.563Z,98084.22
2023-04-02T11:00:08.851Z,98090.91
2023-04-02T11:03:07.404Z,98096.13
2023-04-02T11:05:49.772Z,98095.34
2023-04-02T11:08:20.263Z,98100.88
2023-04-02T11:10:59.440Z,98096.50
2023-04-02T11:13:31.327Z,98106.25
2023-04-02T11:15:58.872Z,98099.47
2023-04-02T11:18:29.707Z,98098.72
2023-04-02T11:21:00.534Z,98108.72
2023-04-02T11:23:36.865Z,98116.09
2023-04-02T11:26:34.485Z,98110.94
2023-04-02T11:29:21.675Z,98117.38
2023-04-02T11:31:51.362Z,98126.06
2023-04-02T11:35:03.033Z,98126.91
2023-04-02T11:37:42.757Z,98128.16
2023-04-02T11:40:13.928Z,98134.63
2023-04-02T11:42:45.774Z,98133.88
2023-04-02T11:45:22.161Z,98136.75
2023-04-02T11:48:02.114Z,98138.75
2023-04-02T11:50:33.599Z,98145.44
2023-04-02T11:53:13.585Z,98139.63
2023-04-02T11:55:44.530Z,98151.28
2023-04-02T11:58:21.215Z,98144.25
2023-04-02T12:01:14.976Z,98141.31
2023-04-02T12:04:09.633Z,98144.78
2023-04-02T12:07:17.909Z,98137.81
2023-04-02T12:09:55.129Z,98155.50
2023-04-02T12:12:34.737Z,98154.75
2023-04-02T12:15:02.393Z,98154.63
2023-04-02T12:17:35.591Z,98151.69
2023-04-02T12:20:13.796Z,98150.41
2023-04-02T12:22:48.274Z,98153.16
2023-04-02T12:25:21.717Z,98148.19
2023-04-02T12:28:02.919Z,98149.78
2023-04-02T12:30:30.576Z,98153.91
2023-04-02T12:32:57.532Z,98160.06
2023-04-02T12:35:36.101Z,98157.91
2023-04-02T12:38:03.043Z,98161.00
2023-04-02T12:40:30.212Z,98161.22
2023-04-02T12:42:57.025Z,98169.78
2023-04-02T12:45:29.354Z,98164.38
2023-04-02T12:47:58.335Z,98165.72
2023-04-02T12:50:26.216Z,98171.38
2023-04-02T12:52:55.697Z,98171.84
2023-04-02T12:55:25.051Z,98163.69
2023-04-02T12:58:00.048Z,98170.72
2023-04-02T13:00:31.688Z,98167.63
2023-04-02T13:03:18.188Z,98173.00
2023-04-02T13:05:48.766Z,98165.44
2023-04-02T13:08:28.198Z,98166.72
2023-04-02T13:11:01.744Z,98173.31
2023-04-02T13:13:34.095Z,98170.19
2023-04-02T13:16:04.241Z,98170.50
2023-04-02T13:18:32.637Z,98176.56
2023-04-02T13:21:00.641Z,98177.34
2023-04-02T13:23:27.516Z,98182.09
2023-04-02T13:26:11.835Z,98184.34
2023-04-02T13:28:38.929Z,98184.25
2023-04-02T13:31:06.342Z,98188.78
2023-04-02T13:33:33.310Z,98188.50
2023-04-02T13:36:00.645Z,98181.91
2023-04-02T13:38:27.578Z,98185.09
2023-04-02T13:40:54.743Z,98182.94
2023-04-02T13:43:21.780Z,98189.81
2023-04-02T13:45:54.443Z,98197.44
2023-04-02T13:48:24.692Z,98192.81
2023-04-02T13:50:52.935Z,98198.94
2023-04-02T13:53:29.576Z,98203.94
2023-04-02T13:56:00.170Z,98199.53
2023-04-02T13:58:27.195Z,98209.91
2023-04-02T14:00:54.416Z,98208.97
2023-04-02T14:03:22.943Z,98206.06
2023-04-02T14:05:59.325Z,98207.25
2023-04-02T14:08:55.897Z,98205.78
2023-04-02T14:11:49.816Z,98210.75
2023-04-02T14:14:35.352Z,98215.81
2023-04-02T14:17:40.827Z,98218.44
2023-04-02T14:20:30.496Z,98222.97
2023-04-02T14:23:10.550Z,98227.44
2023-04-02T14:26:05.100Z,98223.31
2023-04-02T14:28:47.531Z,98224.59
2023-04-02T14:31:54.430Z,98227.69
2023-04-02T14:34:29.209Z,98235.72
2023-04-02T14:37:50.645Z,98235.75
2023-04-02T14:40:32.070Z,98233.91
2023-04-02T14:43:12.377Z,98240.81
2023-04-02T14:45:55.042Z,98236.31
2023-04-02T14:48:27.820Z,98251.84
2023-04-02T14:51:06.381Z,98248.84
2023-04-02T14:53:54.505Z,98253.84
2023-04-02T14:56:24.439Z,98259.78
2023-04-02T14:59:35.665Z,98251.00
2023-04-02T15:02:19.064Z,98264.78
2023-04-02T15:05:01.212Z,98260.78
2023-04-02T15:07:39.719Z,98273.34
2023-04-02T15:10:09.310Z,98268.59
2023-04-02T15:12:40.883Z,98265.41
2023-04-02T15:15:14.781Z,98270.13
2023-04-02T15:17:42.083Z,98280.03
2023-04-02T15:20:14.848Z,98282.03
2023-04-02T15:23:16.014Z,98282.47
2023-04-02T15:25:48.955Z,98284.34
2023-04-02T15:28:42.027Z,98281.09
2023-04-02T15:31:13.866Z,98285.63
2023-04-02T15:33:51.868Z,98293.63
2023-04-02T15:36:40.391Z,98294.53
2023-04-02T15:39:21.150Z,98296.53
2023-04-02T15:42:05.914Z,98294.75
2023-04-02T15:44:35.116Z,98314.03
2023-04-02T15:47:36.825Z,98306.44
2023-04-02T15:50:22.220Z,98315.31
2023-04-02T15:53:07.302Z,98315.59
2023-04-02T15:55:44.370Z,98318.44
2023-04-02T16:00:47.952Z,98326.66
2023-04-02T16:03:33.682Z,98327.03
2023-04-02T16:06:28.032Z,98335.19
2023-04-02T16:09:13.624Z,98336.19
2023-04-02T16:11:40.937Z,98346.91
2023-04-02T16:14:30.436Z,98347.13
2023-04-02T16:17:21.610Z,98349.81
2023-04-02T16:20:11.898Z,98353.50
2023-04-02T16:22:49.806Z,98354.56
2023-04-02T16:25:28.372Z,98360.88
2023-04-02T16:28:16.596Z,98369.09
2023-04-02T16:31:08.132Z,98365.03
2023-04-02T16:33:50.635Z,98370.63
2023-04-02T16:36:29.395Z,98384.16
2023-04-02T16:39:03.559Z,98390.69
2023-04-02T16:41:41.063Z,98392.00
2023-04-02T16:44:36.197Z,98394.16
2023-04-02T16:47:17.939Z,98403.16
2023-04-02T16:49:53.953Z,98394.78
2023-04-02T16:52:26.574Z,98405.59
2023-04-02T16:55:15.228Z,98405.91
2023-04-02T16:58:14.188Z,98411.69
2023-04-02T17:01:11.719Z,98424.13
2023-04-02T17:04:04.248Z,98418.22
2023-04-02T17:06:43.640Z,98422.78
2023-04-02T17:09:22.657Z,98423.69
2023-04-02T17:12:12.881Z,98434.31
2023-04-02T17:14:53.157Z,98441.25
2023-04-02T17:17:22.605Z,98447.47
2023-04-02T17:19:51.648Z,98452.31
2023-04-02T17:22:21.317Z,98456.03
2023-04-02T17:24:54.551Z,98456.09
2023-04-02T17:27:39.549Z,98462.31
2023-04-02T17:30:17.322Z,98463.41
2023-04-02T17:32:44.889Z,98473.06
2023-04-02T17:35:40.251Z,98462.81
2023-04-02T17:38:28.922Z,98471.72
2023-04-02T17:41:05.971Z,98474.44
2023-04-02T17:43:50.342Z,98484.16
2023-04-02T17:46:34.725Z,98478.94
2023-04-02T17:49:17.183Z,98485.28
2023-04-02T17:52:11.814Z,98489.81
2023-04-02T17:54:57.733Z,98488.19
2023-04-02T17:57:45.665Z,98491.81
2023-04-02T18:00:31.557Z,98496.44
2023-04-02T18:03:19.635Z,98494.81
2023-04-02T18:06:03.234Z,98499.41
2023-04-02T18:09:05.851Z,98503.16
2023-04-02T18:11:53.995Z,98508.56
2023-04-02T18:14:53.041Z,98507.03
2023-04-02T18:17:42.177Z,98510.81
2023-04-02T18:20:39.976Z,98516.19
2023-04-02T18:23:43.896Z,98529.50
2023-04-02T18:26:47.716Z,98534.84
2023-04-02T18:29:41.584Z,98528.75
2023-04-02T18:32:36.484Z,98535.78
2023-04-02T18:35:34.794Z,98541.03
2023-04-02T18:38:37.357Z,98535.81
2023-04-02T18:41:39.726Z,98543.75
2023-04-02T18:44:07.648Z,98543.75
2023-04-02T18:46:34.888Z,98546.34
2023-04-02T18:49:19.961Z,98542.94
2023-04-02T18:51:52.340Z,98544.72
2023-04-02T18:54:38.410Z,98544.72
2023-04-02T18:57:14.841Z,98539.59
2023-04-02T19:00:04.463Z,98546.56
2023-04-02T19:02:53.448Z,98549.28
2023-04-02T19:05:26.326Z,98544.94
2023-04-02T19:08:02.575Z,98556.31
2023-04-02T19:10:37.175Z,98552.88
2023-04-02T19:13:16.970Z,98558.13
2023-04-02T19:15:52.802Z,98562.50
2023-04-02T19:18:57.597Z,98563.50
2023-04-02T19:21:55.396Z,98558.28
2023-04-02T19:24:39.807Z,98565.25
2023-04-02T19:42:31.297Z,98569.31
2023-04-02T19:44:59.061Z,98567.13
2023-04-02T19:47:26.502Z,98574.53
2023-04-02T19:49:55.896Z,98575.63
2023-04-02T19:52:22.877Z,98568.03
2023-04-02T19:54:50.086Z,98577.72
2023-04-02T19:57:17.781Z,98574.38
2023-04-02T19:59:45.007Z,98566.69
2023-04-02T20:02:12.391Z,98572.88
2023-04-02T20:04:39.729Z,98567.72
2023-04-02T20:07:06.727Z,98573.91
2023-04-02T20:09:33.916Z,98581.81
2023-04-02T20:12:01.098Z,98569.63
2023-04-02T20:14:28.321Z,98574.03
2023-04-02T20:16:55.364Z,98580.09
2023-04-02T20:19:23.142Z,98582.72
2023-04-02T20:21:50.206Z,98582.72
2023-04-02T20:24:17.503Z,98583.59
2023-04-02T20:26:44.426Z,98594.94
2023-04-02T20:29:12.098Z,98589.72
2023-04-02T20:31:39.062Z,98598.47
2023-04-02T20:34:08.582Z,98593.22
2023-04-02T20:36:35.651Z,98589.84
2023-04-02T20:39:03.653Z,98602.09
2023-04-02T20:41:30.903Z,98601.19
2023-04-02T20:43:58.427Z,98598.66
2023-04-02T20:46:25.788Z,98603.13
2023-04-02T20:48:53.119Z,98602.31
2023-04-02T20:51:20.093Z,98605.88
2023-04-02T20:53:47.842Z,98604.97
2023-04-02T20:56:17.173Z,98607.66
2023-04-02T20:58:44.935Z,98605.13
2023-04-02T21:01:24.929Z,98613.03
2023-04-02T21:04:04.394Z,98608.75
2023-04-02T21:06:32.542Z,98608.88
2023-04-02T21:09:01.780Z,98612.31
2023-04-02T21:11:28.862Z,98610.69
2023-04-02T21:13:56.109Z,98605.47
2023-04-02T21:16:34.194Z,98608.09
2023-04-02T21:19:05.202Z,98611.69
2023-04-02T21:21:32.608Z,98602.97
2023-04-02T21:24:02.719Z,98607.47
2023-04-02T21:26:32.554Z,98606.59
2023-04-02T21:29:01.718Z,98608.38
2023-04-02T21:31:31.260Z,98611.88
2023-04-02T21:33:59.544Z,98611.88
2023-04-02T21:36:35.118Z,98617.16
2023-04-02T21:39:22.526Z,98612.06
2023-04-02T21:41:53.338Z,98618.13
2023-04-02T21:44:22.972Z,98619.03
2023-04-02T21:46:51.896Z,98617.38
2023-04-02T21:49:22.893Z,98620.84
2023-04-02T21:51:51.774Z,98620.06
2023-04-02T21:54:19.574Z,98618.41
2023-04-02T21:56:47.536Z,98613.22
2023-04-02T21:59:17.028Z,98621.06
2023-04-02T22:01:45.970Z,98622.00
2023-04-02T22:04:21.969Z,98626.28
2023-04-02T22:06:49.877Z,98627.19
2023-04-02T22:09:21.305Z,98632.56
2023-04-02T22:11:59.306Z,98634.31
2023-04-02T22:14:27.644Z,98631.69
2023-04-02T22:16:55.005Z,98630.81
2023-04-02T22:19:22.326Z,98629.16
2023-04-02T22:21:49.655Z,98633.44
2023-04-02T22:24:25.517Z,98622.13
2023-04-02T22:26:52.771Z,98626.50
2023-04-02T22:29:20.093Z,98629.13
2023-04-02T22:31:47.346Z,98634.34
2023-04-02T22:34:14.615Z,98632.66
2023-04-02T22:36:41.616Z,98635.38
2023-04-02T22:39:12.071Z,98642.41
2023-04-02T22:41:39.395Z,98635.50
2023-04-02T22:44:06.982Z,98642.50
2023-04-02T22:46:34.924Z,98646.00
2023-04-02T22:49:02.417Z,98636.53
2023-04-02T22:51:29.440Z,98647.00
2023-04-02T22:53:57.279Z,98647.00
2023-04-02T22:56:28.771Z,98635.75
2023-04-02T22:58:56.163Z,98642.72
2023-04-02T23:01:27.233Z,98648.81
2023-04-02T23:03:55.552Z,98648.00
2023-04-02T23:06:23.310Z,98642.84
2023-04-02T23:08:50.988Z,98645.44
2023-04-02T23:11:22.142Z,98649.91
2023-04-02T23:13:52.154Z,98646.50
2023-04-02T23:16:19.929Z,98645.69
2023-04-02T23:18:48.737Z,98649.16
2023-04-02T23:21:17.200Z,98644.88
2023-04-02T23:23:44.971Z,98648.44
2023-04-02T23:26:17.999Z,98652.81
2023-04-02T23:28:45.818Z,98650.25
2023-04-02T23:31:15.990Z,98653.88
2023-04-02T23:33:43.812Z,98652.13
2023-04-02T23:36:23.364Z,98648.66
2023-04-02T23:38:56.161Z,98663.47
2023-04-02T23:41:27.010Z,98656.47
2023-04-02T23:43:58.390Z,98652.22
2023-04-02T23:46:26.000Z,98653.09
2023-04-02T23:48:54.107Z,98654.81
2023-04-02T23:51:21.384Z,98654.88
2023-04-02T23:53:50.402Z,98652.28
2023-04-02T23:56:18.272Z,98663.59
2023-04-02T23:58:46.032Z,98661.88
